Time;durP1;ratioP1;P1;durP2;ratioP2;P2;SDS_P1;SDS_P2;PMS_P1;PMS_P2;Temp;Humidity;BMP_temperature;BMP_pressure;BME280_temperature;BME280_humidity;BME280_pressure;Samples;Min_cycle;Max_cycle;Signal;HPM_P1;HPM_P2
2023/09/02 00:01:24;;;;;;;46.40;27.05;;;;;;;;;;5042042;28;20088;-59
2023/09/02 00:03:50;;;;;;;43.15;25.65;;;;;;;;;;5057382;28;20057;-60
2023/09/02 00:06:17;;;;;;;47.55;26.33;;;;;;;;;;5042659;28;20045;-60
2023/09/02 00:08:43;;;;;;;46.90;26.83;;;;;;;;;;5041923;28;20544;-59
2023/09/02 00:11:10;;;;;;;46.13;27.48;;;;;;;;;;5043431;28;20156;-57
2023/09/02 00:13:36;;;;;;;48.13;27.23;;;;;;;;;;5055045;28;20133;-60
2023/09/02 00:16:03;;;;;;;49.85;26.17;;;;;;;;;;5042884;28;20061;-57
2023/09/02 00:18:29;;;;;;;42.15;25.83;;;;;;;;;;5043035;28;20611;-57
2023/09/02 00:20:56;;;;;;;45.25;26.17;;;;;;;;;;5040948;28;20531;-59
2023/09/02 00:23:22;;;;;;;40.95;25.73;;;;;;;;;;5051390;28;20076;-59
2023/09/02 00:25:48;;;;;;;43.80;26.33;;;;;;;;;;5044042;28;20514;-59
2023/09/02 00:28:16;;;;;;;47.15;27.52;;;;;;;;;;5046792;28;20053;-60
2023/09/02 00:30:42;;;;;;;47.00;27.42;;;;;;;;;;5047040;28;20574;-60
2023/09/02 00:33:08;;;;;;;40.80;24.40;;;;;;;;;;5046986;28;20147;-58
2023/09/02 00:35:35;;;;;;;48.95;29.27;;;;;;;;;;5046193;28;20049;-57
2023/09/02 00:38:01;;;;;;;49.15;27.10;;;;;;;;;;5035119;28;20215;-60
2023/09/02 00:40:29;;;;;;;47.30;25.02;;;;;;;;;;5043916;28;20053;-60
2023/09/02 00:42:56;;;;;;;40.67;26.00;;;;;;;;;;5046692;28;20101;-58
2023/09/02 00:45:23;;;;;;;45.03;25.27;;;;;;;;;;5037057;28;20049;-59
2023/09/02 00:47:50;;;;;;;49.30;26.65;;;;;;;;;;5046455;28;20104;-59
2023/09/02 00:50:16;;;;;;;45.40;25.75;;;;;;;;;;5046528;28;20057;-59
2023/09/02 00:52:44;;;;;;;41.83;25.65;;;;;;;;;;5058094;28;20592;-60
2023/09/02 00:55:11;;;;;;;46.58;27.83;;;;;;;;;;5056856;28;20053;-61
2023/09/02 00:57:38;;;;;;;48.50;26.60;;;;;;;;;;5046034;28;20057;-60
2023/09/02 01:00:05;;;;;;;46.17;26.33;;;;;;;;;;5047059;28;20058;-56
2023/09/02 01:02:32;;;;;;;45.45;25.02;;;;;;;;;;5047687;28;20072;-59
2023/09/02 01:04:59;;;;;;;45.47;27.15;;;;;;;;;;5055122;28;20127;-58
2023/09/02 01:07:25;;;;;;;40.97;25.67;;;;;;;;;;5062548;28;20132;-58
2023/09/02 01:09:52;;;;;;;45.47;26.27;;;;;;;;;;5047100;28;20060;-60
2023/09/02 01:12:18;;;;;;;47.22;26.25;;;;;;;;;;5034642;28;20045;-59
2023/09/02 01:14:45;;;;;;;45.08;25.58;;;;;;;;;;5046854;28;20148;-57
2023/09/02 01:17:11;;;;;;;37.80;23.33;;;;;;;;;;5058276;28;20057;-59
2023/09/02 01:19:39;;;;;;;41.67;24.85;;;;;;;;;;5044562;28;20055;-55
2023/09/02 01:22:13;;;;;;;46.60;23.50;;;;;;;;;;5025435;28;20544;-59
2023/09/02 01:25:05;;;;;;;41.58;24.55;;;;;;;;;;5047987;28;20508;-58
2023/09/02 01:27:38;;;;;;;39.00;24.05;;;;;;;;;;5040676;28;20054;-58
2023/09/02 01:30:05;;;;;;;42.35;23.40;;;;;;;;;;5031976;28;20053;-58
2023/09/02 01:32:37;;;;;;;38.83;23.38;;;;;;;;;;5043233;28;20080;-62
2023/09/02 01:35:06;;;;;;;37.35;23.63;;;;;;;;;;5045229;28;20524;-59
2023/09/02 01:37:42;;;;;;;40.78;24.25;;;;;;;;;;5040957;28;20063;-59
2023/09/02 01:40:10;;;;;;;39.05;23.20;;;;;;;;;;5043299;28;20054;-59
2023/09/02 01:42:37;;;;;;;39.67;23.23;;;;;;;;;;5048517;28;20056;-58
2023/09/02 01:45:04;;;;;;;42.97;23.80;;;;;;;;;;5061941;28;20061;-56
2023/09/02 01:47:30;;;;;;;36.25;22.20;;;;;;;;;;5044897;28;20056;-59
2023/09/02 01:49:57;;;;;;;37.25;22.60;;;;;;;;;;5043297;28;20053;-59
2023/09/02 01:52:24;;;;;;;37.03;22.13;;;;;;;;;;5043985;28;20096;-59
2023/09/02 01:54:51;;;;;;;40.53;23.67;;;;;;;;;;5049380;28;20110;-56
2023/09/02 01:57:17;;;;;;;41.60;24.10;;;;;;;;;;5057605;28;20459;-58
2023/09/02 01:59:44;;;;;;;41.42;24.67;;;;;;;;;;5047278;28;20057;-59
2023/09/02 02:02:10;;;;;;;37.35;24.33;;;;;;;;;;5042018;28;20062;-54
2023/09/02 02:04:38;;;;;;;42.30;24.48;;;;;;;;;;5045608;28;20646;-59
2023/09/02 02:07:06;;;;;;;45.00;25.45;;;;;;;;;;5044466;28;20053;-58
2023/09/02 02:09:35;;;;;;;41.53;23.35;;;;;;;;;;5043981;28;20144;-57
2023/09/02 02:12:03;;;;;;;37.90;22.02;;;;;;;;;;5043700;28;20646;-59
2023/09/02 02:14:32;;;;;;;47.28;24.35;;;;;;;;;;5049775;28;20524;-59
2023/09/02 02:17:00;;;;;;;41.83;23.90;;;;;;;;;;5054419;28;20059;-59
2023/09/02 02:19:27;;;;;;;45.28;25.77;;;;;;;;;;5044530;28;20049;-59
2023/09/02 02:21:53;;;;;;;42.50;24.10;;;;;;;;;;5043054;28;20053;-59
2023/09/02 02:24:20;;;;;;;45.88;25.35;;;;;;;;;;5047491;28;20053;-59
2023/09/02 02:26:46;;;;;;;40.38;23.70;;;;;;;;;;5059768;28;20075;-60
2023/09/02 02:29:12;;;;;;;57.08;26.33;;;;;;;;;;5042474;28;20256;-58
2023/09/02 02:31:39;;;;;;;47.67;25.20;;;;;;;;;;5042132;28;20468;-59
2023/09/02 02:34:05;;;;;;;45.65;25.27;;;;;;;;;;5044480;28;20880;-59
2023/09/02 02:36:32;;;;;;;53.28;25.15;;;;;;;;;;5057913;28;20053;-59
2023/09/02 02:38:58;;;;;;;46.13;24.77;;;;;;;;;;5043692;28;20516;-58
2023/09/02 02:41:24;;;;;;;56.35;25.88;;;;;;;;;;5042931;28;20049;-60
2023/09/02 02:43:51;;;;;;;52.78;28.88;;;;;;;;;;5042498;28;20057;-59
2023/09/02 02:46:17;;;;;;;56.78;27.40;;;;;;;;;;5054943;28;20057;-57
2023/09/02 02:48:44;;;;;;;46.88;25.52;;;;;;;;;;5043460;28;20057;-58
2023/09/02 02:51:10;;;;;;;56.78;25.83;;;;;;;;;;5051326;28;20396;-59
2023/09/02 02:53:37;;;;;;;53.25;27.65;;;;;;;;;;5047147;28;20057;-57
2023/09/02 02:56:03;;;;;;;52.25;27.48;;;;;;;;;;5050968;28;20053;-59
2023/09/02 02:58:32;;;;;;;57.63;27.60;;;;;;;;;;5032431;28;20053;-59
2023/09/02 03:01:06;;;;;;;54.83;27.38;;;;;;;;;;5032692;28;20560;-57
2023/09/02 03:03:33;;;;;;;62.38;28.60;;;;;;;;;;5043173;28;20049;-59
2023/09/02 03:06:00;;;;;;;54.20;26.65;;;;;;;;;;5045751;28;20594;-59
2023/09/02 03:08:27;;;;;;;63.20;27.58;;;;;;;;;;5043466;28;20057;-59
2023/09/02 03:10:57;;;;;;;61.78;28.90;;;;;;;;;;5042134;28;20590;-59
2023/09/02 03:13:28;;;;;;;67.22;29.23;;;;;;;;;;5043407;28;20049;-59
2023/09/02 03:15:55;;;;;;;60.67;28.98;;;;;;;;;;5049844;28;20080;-55
2023/09/02 03:18:22;;;;;;;65.53;29.17;;;;;;;;;;5039881;28;20060;-60
2023/09/02 03:20:48;;;;;;;55.70;27.15;;;;;;;;;;5044607;28;20172;-62
2023/09/02 03:23:15;;;;;;;55.33;27.60;;;;;;;;;;5045304;28;20583;-59
2023/09/02 03:25:42;;;;;;;81.68;27.50;;;;;;;;;;5036032;28;20050;-59
2023/09/02 03:28:09;;;;;;;65.20;27.45;;;;;;;;;;5034929;28;20058;-60
2023/09/02 03:30:35;;;;;;;58.45;27.02;;;;;;;;;;5041466;28;20053;-59
2023/09/02 03:33:02;;;;;;;51.88;26.90;;;;;;;;;;5032425;28;20459;-59
2023/09/02 03:35:29;;;;;;;64.10;25.98;;;;;;;;;;5060355;28;20049;-60
2023/09/02 03:37:56;;;;;;;54.03;25.50;;;;;;;;;;5039306;28;20049;-59
2023/09/02 03:40:22;;;;;;;68.47;27.08;;;;;;;;;;5041586;28;20104;-59
2023/09/02 03:42:49;;;;;;;55.78;25.50;;;;;;;;;;5042726;28;20053;-59
2023/09/02 03:45:15;;;;;;;60.42;26.67;;;;;;;;;;5062084;28;20053;-58
2023/09/02 03:47:42;;;;;;;67.70;27.20;;;;;;;;;;5046141;28;20111;-58
2023/09/02 03:50:09;;;;;;;54.70;26.42;;;;;;;;;;5046793;28;20300;-58
2023/09/02 03:52:35;;;;;;;58.08;25.75;;;;;;;;;;5050203;28;20078;-58
2023/09/02 03:55:03;;;;;;;53.55;25.27;;;;;;;;;;5040599;28;20045;-59
2023/09/02 03:57:31;;;;;;;55.47;25.10;;;;;;;;;;5041174;28;20054;-59
2023/09/02 03:59:57;;;;;;;64.82;25.65;;;;;;;;;;5044607;28;20458;-59
2023/09/02 04:02:23;;;;;;;56.55;24.65;;;;;;;;;;5049518;28;20061;-59
2023/09/02 04:04:50;;;;;;;86.75;24.95;;;;;;;;;;5045028;28;20061;-58
2023/09/02 04:07:16;;;;;;;50.47;25.13;;;;;;;;;;5045276;28;20512;-59
2023/09/02 04:09:43;;;;;;;59.97;26.50;;;;;;;;;;5042243;28;20053;-59
2023/09/02 04:12:09;;;;;;;58.22;24.33;;;;;;;;;;5039004;28;20148;-59
2023/09/02 04:14:35;;;;;;;59.70;24.60;;;;;;;;;;5030830;28;20098;-57
2023/09/02 04:17:03;;;;;;;185.70;31.80;;;;;;;;;;5047598;28;20049;-57
2023/09/02 04:19:29;;;;;;;57.70;25.00;;;;;;;;;;5049260;28;20164;-59
2023/09/02 04:21:57;;;;;;;86.13;25.77;;;;;;;;;;5042520;28;20053;-59
2023/09/02 04:24:24;;;;;;;73.18;24.63;;;;;;;;;;5029675;28;20461;-59
2023/09/02 04:26:51;;;;;;;125.75;26.85;;;;;;;;;;5042531;28;20496;-59
2023/09/02 04:29:17;;;;;;;68.30;24.85;;;;;;;;;;5038273;28;20535;-59
2023/09/02 04:31:44;;;;;;;78.38;24.55;;;;;;;;;;5051975;28;20127;-59
2023/09/02 04:34:10;;;;;;;120.97;26.25;;;;;;;;;;5036483;28;20615;-56
2023/09/02 04:36:36;;;;;;;71.28;24.60;;;;;;;;;;5043370;28;20497;-59
2023/09/02 04:39:04;;;;;;;68.80;23.73;;;;;;;;;;5040690;28;20054;-59
2023/09/02 04:41:31;;;;;;;83.30;24.02;;;;;;;;;;5041085;28;20133;-58
2023/09/02 04:43:57;;;;;;;67.40;23.35;;;;;;;;;;5033121;28;20532;-59
2023/09/02 04:46:24;;;;;;;92.85;24.25;;;;;;;;;;5043665;28;20059;-57
2023/09/02 04:48:52;;;;;;;69.30;23.77;;;;;;;;;;5040280;28;20089;-59
2023/09/02 04:51:19;;;;;;;95.22;23.65;;;;;;;;;;5033462;28;20103;-59
2023/09/02 04:53:45;;;;;;;47.33;20.83;;;;;;;;;;5044818;28;20113;-58
2023/09/02 04:56:12;;;;;;;64.72;22.88;;;;;;;;;;5045256;28;20107;-57
2023/09/02 04:58:39;;;;;;;58.83;22.92;;;;;;;;;;5043238;28;20078;-59
2023/09/02 05:01:09;;;;;;;70.00;23.98;;;;;;;;;;5045214;28;20527;-56
2023/09/02 05:03:35;;;;;;;65.05;20.95;;;;;;;;;;5042862;28;20053;-58
2023/09/02 05:06:02;;;;;;;85.82;23.55;;;;;;;;;;5044650;28;20590;-58
2023/09/02 05:08:33;;;;;;;62.08;23.45;;;;;;;;;;5029168;28;20749;-59
2023/09/02 05:11:01;;;;;;;61.33;21.30;;;;;;;;;;5044569;28;20065;-58
2023/09/02 05:13:27;;;;;;;80.95;21.88;;;;;;;;;;5039525;28;20080;-59
2023/09/02 05:15:53;;;;;;;92.32;23.60;;;;;;;;;;5042586;28;20726;-58
2023/09/02 05:18:20;;;;;;;59.05;21.23;;;;;;;;;;5038614;28;20045;-59
2023/09/02 05:20:46;;;;;;;79.90;22.77;;;;;;;;;;5053041;28;20843;-58
2023/09/02 05:23:14;;;;;;;84.13;22.60;;;;;;;;;;5044910;28;20065;-59
2023/09/02 05:25:40;;;;;;;73.00;21.85;;;;;;;;;;5043089;28;20515;-59
2023/09/02 05:28:07;;;;;;;57.47;21.20;;;;;;;;;;5043836;28;20050;-59
2023/09/02 05:30:35;;;;;;;46.00;20.10;;;;;;;;;;5044462;28;20088;-57
2023/09/02 05:33:02;;;;;;;207.02;28.08;;;;;;;;;;5033738;28;20084;-57
2023/09/02 05:35:28;;;;;;;91.20;21.60;;;;;;;;;;5049699;28;20427;-59
2023/09/02 05:37:55;;;;;;;54.85;20.73;;;;;;;;;;5040427;28;20569;-59
2023/09/02 05:40:21;;;;;;;68.97;19.90;;;;;;;;;;5042644;28;20053;-60
2023/09/02 05:42:49;;;;;;;62.00;21.20;;;;;;;;;;5039312;28;20058;-58
2023/09/02 05:45:15;;;;;;;68.05;20.25;;;;;;;;;;5043367;28;20053;-60
2023/09/02 05:47:41;;;;;;;55.88;19.90;;;;;;;;;;5043201;28;20189;-59
2023/09/02 05:50:08;;;;;;;180.70;23.08;;;;;;;;;;5041551;28;20120;-57
2023/09/02 05:52:34;;;;;;;108.13;21.27;;;;;;;;;;5032681;28;20145;-58
2023/09/02 05:55:01;;;;;;;55.85;18.52;;;;;;;;;;5036770;28;20724;-59
2023/09/02 05:57:28;;;;;;;229.35;25.92;;;;;;;;;;5058925;28;20061;-59
2023/09/02 05:59:55;;;;;;;42.40;17.88;;;;;;;;;;5024306;28;20429;-59
2023/09/02 06:02:21;;;;;;;39.58;17.83;;;;;;;;;;5032590;28;20065;-57
2023/09/02 06:04:48;;;;;;;41.53;16.45;;;;;;;;;;5056362;28;20061;-59
2023/09/02 06:07:14;;;;;;;48.38;17.15;;;;;;;;;;5048361;28;20577;-60
2023/09/02 06:09:42;;;;;;;50.35;16.92;;;;;;;;;;5038765;28;20061;-58
2023/09/02 06:12:08;;;;;;;39.47;16.65;;;;;;;;;;5034786;28;20625;-57
2023/09/02 06:14:35;;;;;;;40.83;15.65;;;;;;;;;;5040754;28;20501;-56
2023/09/02 06:17:02;;;;;;;61.47;17.95;;;;;;;;;;5042542;28;20072;-59
2023/09/02 06:19:28;;;;;;;54.97;17.67;;;;;;;;;;5045478;28;20717;-60
2023/09/02 06:21:55;;;;;;;29.45;15.88;;;;;;;;;;5041851;28;20073;-60
2023/09/02 06:24:21;;;;;;;55.90;16.33;;;;;;;;;;5026398;28;20046;-59
2023/09/02 06:26:48;;;;;;;84.00;19.88;;;;;;;;;;5040375;28;20515;-59
2023/09/02 06:29:14;;;;;;;42.90;15.15;;;;;;;;;;5042977;28;20470;-59
2023/09/02 06:31:40;;;;;;;26.60;14.45;;;;;;;;;;5039214;28;20092;-59
2023/09/02 06:34:07;;;;;;;41.00;15.82;;;;;;;;;;5042620;28;20056;-57
2023/09/02 06:36:33;;;;;;;35.30;15.50;;;;;;;;;;5043526;28;20046;-58
2023/09/02 06:39:00;;;;;;;38.75;16.25;;;;;;;;;;5037913;28;20049;-59
2023/09/02 06:41:26;;;;;;;41.78;15.27;;;;;;;;;;5037489;28;20492;-60
2023/09/02 06:43:53;;;;;;;46.17;16.27;;;;;;;;;;5028042;28;20057;-59
2023/09/02 06:46:19;;;;;;;67.00;17.50;;;;;;;;;;5041454;28;20370;-59
2023/09/02 06:48:47;;;;;;;32.67;15.27;;;;;;;;;;5032058;28;20092;-59
2023/09/02 06:51:14;;;;;;;85.95;17.92;;;;;;;;;;5027620;28;20266;-58
2023/09/02 06:53:40;;;;;;;30.67;14.77;;;;;;;;;;5042370;28;20152;-58
2023/09/02 06:56:08;;;;;;;35.28;14.40;;;;;;;;;;5045022;28;20538;-59
2023/09/02 06:58:35;;;;;;;39.35;15.80;;;;;;;;;;5041630;28;20132;-57
2023/09/02 07:01:02;;;;;;;46.40;15.88;;;;;;;;;;5039624;28;20053;-57
2023/09/02 07:03:28;;;;;;;50.20;13.55;;;;;;;;;;5057261;28;20045;-59
2023/09/02 07:06:03;;;;;;;28.35;13.75;;;;;;;;;;5026553;28;20180;-58
2023/09/02 07:08:30;;;;;;;30.48;14.00;;;;;;;;;;5044256;28;20058;-59
2023/09/02 07:10:56;;;;;;;33.45;14.73;;;;;;;;;;5038187;28;20512;-57
2023/09/02 07:13:22;;;;;;;30.13;14.20;;;;;;;;;;5042714;28;20057;-58
2023/09/02 07:15:57;;;;;;;27.25;14.27;;;;;;;;;;5042158;28;20528;-59
2023/09/02 07:18:23;;;;;;;31.50;14.87;;;;;;;;;;5044469;28;20061;-59
2023/09/02 07:20:50;;;;;;;32.63;15.18;;;;;;;;;;5043210;28;20335;-58
2023/09/02 07:23:16;;;;;;;28.48;14.23;;;;;;;;;;5050112;28;20053;-58
2023/09/02 07:25:43;;;;;;;26.30;14.82;;;;;;;;;;5044840;28;20049;-58
2023/09/02 07:28:09;;;;;;;25.40;14.80;;;;;;;;;;5042757;28;20140;-57
2023/09/02 07:30:39;;;;;;;28.27;15.10;;;;;;;;;;5045468;28;20132;-58
2023/09/02 07:33:05;;;;;;;31.73;15.52;;;;;;;;;;5043166;28;20500;-58
2023/09/02 07:35:37;;;;;;;27.83;14.70;;;;;;;;;;5040374;28;20054;-59
2023/09/02 07:38:04;;;;;;;26.88;15.38;;;;;;;;;;5033592;28;20049;-59
2023/09/02 07:40:31;;;;;;;26.55;14.93;;;;;;;;;;5046387;28;20144;-59
2023/09/02 07:43:00;;;;;;;28.25;16.45;;;;;;;;;;5030167;28;20471;-60
2023/09/02 07:45:26;;;;;;;27.25;14.73;;;;;;;;;;5028376;28;20112;-58
2023/09/02 07:47:53;;;;;;;31.27;16.20;;;;;;;;;;5041146;28;20054;-59
2023/09/02 07:50:20;;;;;;;27.05;15.10;;;;;;;;;;5042103;28;20058;-59
2023/09/02 07:52:47;;;;;;;30.02;15.80;;;;;;;;;;5042908;28;20054;-59
2023/09/02 07:55:14;;;;;;;31.80;15.45;;;;;;;;;;5039575;28;20137;-58
2023/09/02 07:57:44;;;;;;;29.63;15.73;;;;;;;;;;5043026;28;20083;-59
2023/09/02 08:00:10;;;;;;;26.60;15.65;;;;;;;;;;5035460;28;20112;-57
2023/09/02 08:02:37;;;;;;;29.30;15.80;;;;;;;;;;5042541;28;20601;-59
2023/09/02 08:05:04;;;;;;;31.70;16.17;;;;;;;;;;5039757;28;20119;-60
2023/09/02 08:07:31;;;;;;;33.55;16.27;;;;;;;;;;5033992;28;20197;-59
2023/09/02 08:09:57;;;;;;;26.48;15.93;;;;;;;;;;5041279;28;20522;-58
2023/09/02 08:12:24;;;;;;;31.65;16.75;;;;;;;;;;5041599;28;20283;-59
2023/09/02 08:14:50;;;;;;;35.10;16.40;;;;;;;;;;5053174;28;20076;-58
2023/09/02 08:17:19;;;;;;;28.15;15.95;;;;;;;;;;5039265;28;20496;-59
2023/09/02 08:19:46;;;;;;;31.95;15.10;;;;;;;;;;5043218;28;20049;-59
2023/09/02 08:22:13;;;;;;;27.33;16.33;;;;;;;;;;5040927;28;20049;-59
2023/09/02 08:24:40;;;;;;;32.25;16.08;;;;;;;;;;5038944;28;20085;-58
2023/09/02 08:27:08;;;;;;;30.20;15.65;;;;;;;;;;5036533;28;20148;-58
2023/09/02 08:29:35;;;;;;;27.98;16.10;;;;;;;;;;5042437;28;20069;-56
2023/09/02 08:32:02;;;;;;;32.13;17.73;;;;;;;;;;5039956;28;20196;-58
2023/09/02 08:34:28;;;;;;;30.92;17.25;;;;;;;;;;5028781;28;20057;-57
2023/09/02 08:36:54;;;;;;;35.17;18.75;;;;;;;;;;5034464;28;20589;-58
2023/09/02 08:39:21;;;;;;;33.90;17.35;;;;;;;;;;5032863;28;20504;-59
2023/09/02 08:41:48;;;;;;;38.65;18.67;;;;;;;;;;5034900;28;20060;-57
2023/09/02 08:44:16;;;;;;;29.48;16.13;;;;;;;;;;5041880;28;20061;-60
2023/09/02 08:46:44;;;;;;;34.60;17.25;;;;;;;;;;5041896;28;20053;-56
2023/09/02 08:49:11;;;;;;;34.28;17.17;;;;;;;;;;5043212;28;20494;-58
2023/09/02 08:51:38;;;;;;;33.25;17.48;;;;;;;;;;5043260;28;20060;-58
2023/09/02 08:54:05;;;;;;;34.00;17.58;;;;;;;;;;5044360;28;20053;-56
2023/09/02 08:56:32;;;;;;;39.78;19.45;;;;;;;;;;5042257;28;20046;-56
2023/09/02 08:58:58;;;;;;;38.72;19.58;;;;;;;;;;5058326;28;20447;-59
2023/09/02 09:01:25;;;;;;;35.28;17.45;;;;;;;;;;5040967;28;20115;-59
2023/09/02 09:03:55;;;;;;;39.47;18.98;;;;;;;;;;5045290;28;20366;-58
2023/09/02 09:06:25;;;;;;;36.05;17.92;;;;;;;;;;5032948;28;20058;-59
2023/09/02 09:08:52;;;;;;;40.17;18.73;;;;;;;;;;5044166;28;20050;-57
2023/09/02 09:11:20;;;;;;;38.65;19.17;;;;;;;;;;5046084;28;20512;-59
2023/09/02 09:13:48;;;;;;;40.00;19.85;;;;;;;;;;5044874;28;20496;-57
2023/09/02 09:16:21;;;;;;;45.88;20.73;;;;;;;;;;5053659;28;20057;-61
2023/09/02 09:18:48;;;;;;;42.17;20.85;;;;;;;;;;5043851;28;20406;-58
2023/09/02 09:21:15;;;;;;;52.63;23.40;;;;;;;;;;5041469;28;20046;-60
2023/09/02 09:23:41;;;;;;;51.78;23.35;;;;;;;;;;5037361;28;20220;-61
2023/09/02 09:26:09;;;;;;;51.78;23.35;;;;;;;;;;5027477;28;20088;-60
2023/09/02 09:28:50;;;;;;;50.42;21.52;;;;;;;;;;5055051;28;20305;-59
2023/09/02 09:31:17;;;;;;;46.13;21.90;;;;;;;;;;5032202;28;20054;-60
2023/09/02 09:33:50;;;;;;;44.15;21.27;;;;;;;;;;5052963;28;20161;-58
2023/09/02 09:36:17;;;;;;;46.50;22.02;;;;;;;;;;5037456;28;20050;-60
2023/09/02 09:38:43;;;;;;;42.35;20.92;;;;;;;;;;5044199;28;20056;-61
2023/09/02 09:41:10;;;;;;;44.10;21.75;;;;;;;;;;5037470;28;20535;-61
2023/09/02 09:43:36;;;;;;;39.13;20.23;;;;;;;;;;5046448;28;20092;-57
2023/09/02 09:46:02;;;;;;;41.63;20.38;;;;;;;;;;5042493;28;20053;-60
2023/09/02 09:48:29;;;;;;;37.67;19.52;;;;;;;;;;5040494;28;20057;-59
2023/09/02 09:50:56;;;;;;;38.83;19.90;;;;;;;;;;5039838;28;20061;-58
2023/09/02 09:53:24;;;;;;;37.47;19.02;;;;;;;;;;5044249;28;20064;-58
2023/09/02 09:55:51;;;;;;;37.58;20.05;;;;;;;;;;5041861;28;20057;-60
2023/09/02 09:58:23;;;;;;;36.55;19.77;;;;;;;;;;5042649;28;20053;-60
2023/09/02 10:00:51;;;;;;;34.75;18.63;;;;;;;;;;5032126;28;20145;-59
2023/09/02 10:03:28;;;;;;;33.53;18.10;;;;;;;;;;5044407;28;20053;-60
2023/09/02 10:05:58;;;;;;;32.83;19.38;;;;;;;;;;5048445;28;20080;-60
2023/09/02 10:08:25;;;;;;;36.38;19.63;;;;;;;;;;5048261;28;20053;-60
2023/09/02 10:10:51;;;;;;;33.13;18.70;;;;;;;;;;5041171;28;20054;-59
2023/09/02 10:13:18;;;;;;;32.17;18.73;;;;;;;;;;5046261;28;20058;-59
2023/09/02 10:15:47;;;;;;;37.13;20.02;;;;;;;;;;5036767;28;20492;-58
2023/09/02 10:18:14;;;;;;;38.00;19.92;;;;;;;;;;5044324;28;20058;-60
2023/09/02 10:20:41;;;;;;;34.85;17.88;;;;;;;;;;5047872;28;20562;-59
2023/09/02 10:23:09;;;;;;;32.05;18.27;;;;;;;;;;5049599;28;20112;-59
2023/09/02 10:25:35;;;;;;;38.75;19.45;;;;;;;;;;5044178;28;20053;-58
2023/09/02 10:28:08;;;;;;;37.42;20.67;;;;;;;;;;5043629;28;20056;-56
2023/09/02 10:30:36;;;;;;;40.78;20.73;;;;;;;;;;5039522;28;20054;-58
2023/09/02 10:33:08;;;;;;;34.55;19.48;;;;;;;;;;5033772;28;20062;-59
2023/09/02 10:35:38;;;;;;;38.45;20.15;;;;;;;;;;5043083;28;20049;-58
2023/09/02 10:38:05;;;;;;;38.47;20.17;;;;;;;;;;5029597;28;20132;-58
2023/09/02 10:40:37;;;;;;;34.60;20.85;;;;;;;;;;5027306;28;20081;-60
2023/09/02 10:43:04;;;;;;;36.63;19.00;;;;;;;;;;5033375;28;20483;-57
2023/09/02 10:45:31;;;;;;;39.47;20.00;;;;;;;;;;5039757;28;20057;-60
2023/09/02 10:47:58;;;;;;;35.00;20.42;;;;;;;;;;5049165;28;20132;-59
2023/09/02 10:50:24;;;;;;;40.67;22.58;;;;;;;;;;5044659;28;20618;-59
2023/09/02 10:52:51;;;;;;;36.85;21.17;;;;;;;;;;5041420;28;20065;-60
2023/09/02 10:55:57;;;;;;;38.88;22.45;;;;;;;;;;5029286;28;20136;-60
2023/09/02 10:58:23;;;;;;;44.92;21.63;;;;;;;;;;5042615;28;20112;-60
2023/09/02 11:00:51;;;;;;;34.30;19.58;;;;;;;;;;5044540;28;20049;-60
2023/09/02 11:03:42;;;;;;;38.47;20.40;;;;;;;;;;5035708;28;20531;-60
2023/09/02 11:06:11;;;;;;;35.95;20.83;;;;;;;;;;5036068;28;20049;-59
2023/09/02 11:08:49;;;;;;;41.47;21.67;;;;;;;;;;5049012;28;20053;-60
2023/09/02 11:11:16;;;;;;;37.78;20.60;;;;;;;;;;5027601;28;20581;-58
2023/09/02 11:14:01;;;;;;;32.72;20.33;;;;;;;;;;5042268;28;20061;-59
2023/09/02 11:16:28;;;;;;;31.60;19.90;;;;;;;;;;5038410;28;20057;-59
2023/09/02 11:18:54;;;;;;;34.45;20.25;;;;;;;;;;5039000;28;20081;-59
2023/09/02 11:21:41;;;;;;;30.25;19.80;;;;;;;;;;5042211;28;20053;-59
2023/09/02 11:24:17;;;;;;;27.20;18.10;;;;;;;;;;5041578;28;20053;-59
2023/09/02 11:26:53;;;;;;;31.67;19.30;;;;;;;;;;5059107;28;20523;-57
2023/09/02 11:29:26;;;;;;;34.08;19.52;;;;;;;;;;5047385;28;20048;-60
2023/09/02 11:32:05;;;;;;;34.35;20.45;;;;;;;;;;5041716;28;20136;-60
2023/09/02 11:34:32;;;;;;;31.17;20.50;;;;;;;;;;5043017;28;20152;-59
2023/09/02 11:37:00;;;;;;;34.85;21.65;;;;;;;;;;5043295;28;20072;-59
2023/09/02 11:39:27;;;;;;;34.55;22.25;;;;;;;;;;5037475;28;20486;-60
2023/09/02 11:42:06;;;;;;;36.58;22.00;;;;;;;;;;5027312;28;20057;-60
2023/09/02 11:44:33;;;;;;;37.28;21.17;;;;;;;;;;5046336;28;20126;-58
2023/09/02 11:47:01;;;;;;;29.33;20.33;;;;;;;;;;5051424;28;20149;-60
2023/09/02 11:49:27;;;;;;;31.70;20.95;;;;;;;;;;5044632;28;20144;-60
2023/09/02 11:51:54;;;;;;;27.23;18.88;;;;;;;;;;5043896;28;20449;-58
2023/09/02 11:54:20;;;;;;;26.50;19.60;;;;;;;;;;5050319;28;20057;-61
2023/09/02 11:57:02;;;;;;;27.88;18.73;;;;;;;;;;5048620;28;20045;-60
2023/09/02 11:59:29;;;;;;;28.23;18.30;;;;;;;;;;5036828;28;20057;-60
2023/09/02 12:02:09;;;;;;;27.13;18.60;;;;;;;;;;5029324;28;20802;-57
2023/09/02 12:04:36;;;;;;;23.83;16.77;;;;;;;;;;5044945;28;20558;-60
2023/09/02 12:07:04;;;;;;;24.70;17.60;;;;;;;;;;5044959;28;20053;-59
2023/09/02 12:09:30;;;;;;;25.08;18.23;;;;;;;;;;5043827;28;20115;-60
2023/09/02 12:11:57;;;;;;;27.00;19.60;;;;;;;;;;5041739;28;20046;-60
2023/09/02 12:14:26;;;;;;;25.80;17.40;;;;;;;;;;5047126;28;20053;-60
2023/09/02 12:16:52;;;;;;;24.60;17.33;;;;;;;;;;5043114;28;20063;-60
2023/09/02 12:19:19;;;;;;;25.42;18.13;;;;;;;;;;5041918;28;20419;-58
2023/09/02 12:21:46;;;;;;;23.10;17.17;;;;;;;;;;5041751;28;20093;-61
2023/09/02 12:24:13;;;;;;;23.23;16.23;;;;;;;;;;5043544;28;21332;-60
2023/09/02 12:26:49;;;;;;;26.45;17.77;;;;;;;;;;5045903;28;20064;-61
2023/09/02 12:29:16;;;;;;;25.52;17.45;;;;;;;;;;5025755;28;20080;-60
2023/09/02 12:31:52;;;;;;;24.38;17.30;;;;;;;;;;5040806;28;20057;-59
2023/09/02 12:34:18;;;;;;;27.33;16.90;;;;;;;;;;5055052;28;20057;-58
2023/09/02 12:36:45;;;;;;;26.27;17.25;;;;;;;;;;5047526;28;20056;-60
2023/09/02 12:39:22;;;;;;;23.35;16.42;;;;;;;;;;5055456;28;20119;-60
2023/09/02 12:41:49;;;;;;;25.45;15.00;;;;;;;;;;5045016;28;20141;-60
2023/09/02 12:44:18;;;;;;;25.73;16.33;;;;;;;;;;5050352;28;20052;-60
2023/09/02 12:46:46;;;;;;;26.13;17.08;;;;;;;;;;5045583;28;20053;-60
2023/09/02 12:49:16;;;;;;;22.20;14.82;;;;;;;;;;5043386;28;20057;-60
2023/09/02 12:51:43;;;;;;;24.00;15.05;;;;;;;;;;5043649;28;20053;-60
2023/09/02 12:54:11;;;;;;;20.92;15.38;;;;;;;;;;5039268;28;20060;-60
2023/09/02 12:56:37;;;;;;;23.50;15.95;;;;;;;;;;5039563;28;20150;-59
2023/09/02 12:59:04;;;;;;;21.58;15.88;;;;;;;;;;5036756;28;20045;-58
2023/09/02 13:01:31;;;;;;;21.52;15.95;;;;;;;;;;5059455;28;20060;-61
2023/09/02 13:03:58;;;;;;;21.58;15.13;;;;;;;;;;5036159;28;20053;-58
2023/09/02 13:06:34;;;;;;;22.35;16.20;;;;;;;;;;5034497;28;20076;-60
2023/09/02 13:09:01;;;;;;;22.55;15.88;;;;;;;;;;5027290;28;20082;-59
2023/09/02 13:11:28;;;;;;;23.60;15.40;;;;;;;;;;5033077;28;20443;-58
2023/09/02 13:13:54;;;;;;;21.98;14.50;;;;;;;;;;5033328;28;20057;-61
2023/09/02 13:16:21;;;;;;;22.17;16.50;;;;;;;;;;5043958;28;20060;-60
2023/09/02 13:18:48;;;;;;;23.00;14.80;;;;;;;;;;5039907;28;20060;-60
2023/09/02 13:21:14;;;;;;;19.92;14.07;;;;;;;;;;5041496;28;20057;-58
2023/09/02 13:23:41;;;;;;;16.25;11.63;;;;;;;;;;5031379;28;20050;-60
2023/09/02 13:26:14;;;;;;;17.00;12.13;;;;;;;;;;5039331;28;20530;-60
2023/09/02 13:28:41;;;;;;;17.52;12.15;;;;;;;;;;5045277;28;20068;-61
2023/09/02 13:31:07;;;;;;;15.05;11.30;;;;;;;;;;5039124;28;20570;-59
2023/09/02 13:33:34;;;;;;;19.88;12.15;;;;;;;;;;5037913;28;20101;-57
2023/09/02 13:36:01;;;;;;;17.95;12.13;;;;;;;;;;5043844;28;20527;-59
2023/09/02 13:38:28;;;;;;;17.33;12.15;;;;;;;;;;5045780;28;20104;-60
2023/09/02 13:40:54;;;;;;;18.08;11.93;;;;;;;;;;5042359;28;20452;-62
2023/09/02 13:43:22;;;;;;;18.23;12.90;;;;;;;;;;5040215;28;20156;-61
2023/09/02 13:45:49;;;;;;;16.80;12.02;;;;;;;;;;5026149;28;20062;-61
2023/09/02 13:48:16;;;;;;;24.15;13.23;;;;;;;;;;5042294;28;20072;-60
2023/09/02 13:50:43;;;;;;;18.15;11.82;;;;;;;;;;5034336;28;20144;-60
2023/09/02 13:53:09;;;;;;;16.85;12.18;;;;;;;;;;5031938;28;20060;-60
2023/09/02 13:55:37;;;;;;;17.23;11.63;;;;;;;;;;5041635;28;20057;-60
2023/09/02 13:58:04;;;;;;;17.23;12.32;;;;;;;;;;5026712;28;20102;-61
2023/09/02 14:00:39;;;;;;;14.70;11.43;;;;;;;;;;5040480;28;20049;-59
2023/09/02 14:03:24;;;;;;;16.58;11.60;;;;;;;;;;5042727;28;20057;-61
2023/09/02 14:05:53;;;;;;;17.90;11.55;;;;;;;;;;5040963;28;20147;-61
2023/09/02 14:08:20;;;;;;;16.77;10.85;;;;;;;;;;5042281;28;20049;-61
2023/09/02 14:10:47;;;;;;;16.38;10.65;;;;;;;;;;5036664;28;20487;-62
2023/09/02 14:13:17;;;;;;;15.82;11.15;;;;;;;;;;5042003;28;20606;-61
2023/09/02 14:15:45;;;;;;;16.35;10.75;;;;;;;;;;5038625;28;20452;-59
2023/09/02 14:18:12;;;;;;;16.88;10.85;;;;;;;;;;5027427;28;20058;-60
2023/09/02 14:20:39;;;;;;;14.48;11.20;;;;;;;;;;5043498;28;20053;-62